sensor_id;sensor_type;location;lat;lon;timestamp;P1;durP1;ratioP1;P2;durP2;ratioP2
67164;SDS011;54093;50.014;19.984;2023-05-07T00:02:28;10.35;;;9.45;;
67164;SDS011;54093;50.014;19.984;2023-05-07T00:11:49;7.30;;;6.70;;
67164;SDS011;54093;50.014;19.984;2023-05-07T00:21:10;8.27;;;7.53;;
67164;SDS011;54093;50.014;19.984;2023-05-07T00:30:31;14.75;;;7.35;;
67164;SDS011;54093;50.014;19.984;2023-05-07T00:39:52;10.93;;;7.18;;
67164;SDS011;54093;50.014;19.984;2023-05-07T00:49:13;7.80;;;7.10;;
67164;SDS011;54093;50.014;19.984;2023-05-07T00:58:34;6.53;;;5.93;;
67164;SDS011;54093;50.014;19.984;2023-05-07T01:07:55;6.57;;;6.00;;
67164;SDS011;54093;50.014;19.984;2023-05-07T01:17:17;7.85;;;6.78;;
67164;SDS011;54093;50.014;19.984;2023-05-07T01:26:38;7.45;;;6.80;;
67164;SDS011;54093;50.014;19.984;2023-05-07T01:36:00;8.05;;;6.47;;
67164;SDS011;54093;50.014;19.984;2023-05-07T01:45:24;11.15;;;6.90;;
67164;SDS011;54093;50.014;19.984;2023-05-07T01:54:46;7.68;;;6.90;;
67164;SDS011;54093;50.014;19.984;2023-05-07T02:04:07;16.67;;;7.93;;
67164;SDS011;54093;50.014;19.984;2023-05-07T02:13:28;15.52;;;8.57;;
67164;SDS011;54093;50.014;19.984;2023-05-07T02:22:50;9.35;;;8.07;;
67164;SDS011;54093;50.014;19.984;2023-05-07T02:32:11;8.15;;;7.18;;
67164;SDS011;54093;50.014;19.984;2023-05-07T02:41:32;9.38;;;7.03;;
67164;SDS011;54093;50.014;19.984;2023-05-07T02:50:54;6.68;;;5.55;;
67164;SDS011;54093;50.014;19.984;2023-05-07T03:00:16;5.55;;;5.15;;
67164;SDS011;54093;50.014;19.984;2023-05-07T03:09:38;4.70;;;4.30;;
67164;SDS011;54093;50.014;19.984;2023-05-07T03:18:59;5.22;;;4.82;;
67164;SDS011;54093;50.014;19.984;2023-05-07T03:28:20;5.32;;;4.82;;
67164;SDS011;54093;50.014;19.984;2023-05-07T03:37:41;4.25;;;3.95;;
67164;SDS011;54093;50.014;19.984;2023-05-07T03:47:03;3.20;;;2.85;;
67164;SDS011;54093;50.014;19.984;2023-05-07T03:56:24;2.45;;;2.30;;
67164;SDS011;54093;50.014;19.984;2023-05-07T04:05:47;2.10;;;2.00;;
67164;SDS011;54093;50.014;19.984;2023-05-07T04:15:07;1.70;;;1.60;;
67164;SDS011;54093;50.014;19.984;2023-05-07T04:24:31;1.52;;;1.52;;
67164;SDS011;54093;50.014;19.984;2023-05-07T04:33:53;1.90;;;1.80;;
67164;SDS011;54093;50.014;19.984;2023-05-07T04:43:14;1.90;;;1.80;;
67164;SDS011;54093;50.014;19.984;2023-05-07T04:52:36;1.80;;;1.70;;
67164;SDS011;54093;50.014;19.984;2023-05-07T05:01:57;2.00;;;1.90;;
67164;SDS011;54093;50.014;19.984;2023-05-07T05:11:18;1.80;;;1.70;;
67164;SDS011;54093;50.014;19.984;2023-05-07T05:20:39;3.42;;;1.92;;
67164;SDS011;54093;50.014;19.984;2023-05-07T05:30:00;1.80;;;1.70;;
67164;SDS011;54093;50.014;19.984;2023-05-07T05:39:21;1.65;;;1.55;;
67164;SDS011;54093;50.014;19.984;2023-05-07T05:48:43;2.10;;;1.75;;
67164;SDS011;54093;50.014;19.984;2023-05-07T05:58:04;1.30;;;1.30;;
67164;SDS011;54093;50.014;19.984;2023-05-07T06:07:25;1.92;;;1.80;;
67164;SDS011;54093;50.014;19.984;2023-05-07T06:16:46;1.52;;;1.50;;
67164;SDS011;54093;50.014;19.984;2023-05-07T06:26:07;1.40;;;1.30;;
67164;SDS011;54093;50.014;19.984;2023-05-07T06:35:28;1.25;;;1.25;;
67164;SDS011;54093;50.014;19.984;2023-05-07T06:44:49;1.40;;;1.40;;
67164;SDS011;54093;50.014;19.984;2023-05-07T06:54:10;1.23;;;1.23;;
67164;SDS011;54093;50.014;19.984;2023-05-07T07:03:31;1.55;;;1.45;;
67164;SDS011;54093;50.014;19.984;2023-05-07T07:12:51;1.90;;;1.80;;
67164;SDS011;54093;50.014;19.984;2023-05-07T07:22:13;1.75;;;1.60;;
67164;SDS011;54093;50.014;19.984;2023-05-07T07:31:34;1.50;;;1.40;;
67164;SDS011;54093;50.014;19.984;2023-05-07T07:40:55;1.67;;;1.38;;
67164;SDS011;54093;50.014;19.984;2023-05-07T07:50:15;1.20;;;1.20;;
67164;SDS011;54093;50.014;19.984;2023-05-07T07:59:36;1.08;;;1.08;;
67164;SDS011;54093;50.014;19.984;2023-05-07T08:08:57;1.98;;;1.40;;
67164;SDS011;54093;50.014;19.984;2023-05-07T08:18:18;1.35;;;1.35;;
67164;SDS011;54093;50.014;19.984;2023-05-07T08:27:39;1.45;;;1.45;;
67164;SDS011;54093;50.014;19.984;2023-05-07T08:37:00;1.50;;;1.50;;
67164;SDS011;54093;50.014;19.984;2023-05-07T08:46:21;1.80;;;1.55;;
67164;SDS011;54093;50.014;19.984;2023-05-07T08:55:42;1.20;;;1.20;;
67164;SDS011;54093;50.014;19.984;2023-05-07T09:05:03;1.95;;;1.85;;
67164;SDS011;54093;50.014;19.984;2023-05-07T09:14:25;1.75;;;1.70;;
67164;SDS011;54093;50.014;19.984;2023-05-07T09:23:47;1.92;;;1.83;;
67164;SDS011;54093;50.014;19.984;2023-05-07T09:33:12;1.67;;;1.63;;
67164;SDS011;54093;50.014;19.984;2023-05-07T09:42:32;1.75;;;1.67;;
67164;SDS011;54093;50.014;19.984;2023-05-07T09:51:54;1.73;;;1.63;;
67164;SDS011;54093;50.014;19.984;2023-05-07T10:01:15;2.40;;;2.20;;
67164;SDS011;54093;50.014;19.984;2023-05-07T10:10:39;3.22;;;2.17;;
67164;SDS011;54093;50.014;19.984;2023-05-07T10:20:01;2.00;;;1.90;;
67164;SDS011;54093;50.014;19.984;2023-05-07T10:38:47;2.40;;;2.30;;
67164;SDS011;54093;50.014;19.984;2023-05-07T10:48:15;1.90;;;1.83;;
67164;SDS011;54093;50.014;19.984;2023-05-07T10:57:37;3.87;;;2.50;;
67164;SDS011;54093;50.014;19.984;2023-05-07T11:16:30;2.20;;;2.05;;
67164;SDS011;54093;50.014;19.984;2023-05-07T11:25:58;1.92;;;1.83;;
67164;SDS011;54093;50.014;19.984;2023-05-07T11:35:29;2.00;;;1.75;;
67164;SDS011;54093;50.014;19.984;2023-05-07T11:44:50;2.10;;;2.00;;
67164;SDS011;54093;50.014;19.984;2023-05-07T11:54:11;2.08;;;1.98;;
67164;SDS011;54093;50.014;19.984;2023-05-07T12:03:34;1.48;;;1.48;;
67164;SDS011;54093;50.014;19.984;2023-05-07T12:12:57;2.00;;;1.90;;
67164;SDS011;54093;50.014;19.984;2023-05-07T12:22:18;1.73;;;1.63;;
67164;SDS011;54093;50.014;19.984;2023-05-07T12:31:42;2.13;;;1.77;;
67164;SDS011;54093;50.014;19.984;2023-05-07T12:41:03;1.58;;;1.55;;
67164;SDS011;54093;50.014;19.984;2023-05-07T12:50:25;2.30;;;2.10;;
67164;SDS011;54093;50.014;19.984;2023-05-07T12:59:46;1.60;;;1.50;;
67164;SDS011;54093;50.014;19.984;2023-05-07T13:09:07;1.88;;;1.77;;
67164;SDS011;54093;50.014;19.984;2023-05-07T13:18:31;2.13;;;2.00;;
67164;SDS011;54093;50.014;19.984;2023-05-07T13:27:53;1.77;;;1.67;;
67164;SDS011;54093;50.014;19.984;2023-05-07T13:37:14;1.80;;;1.70;;
67164;SDS011;54093;50.014;19.984;2023-05-07T13:46:35;2.28;;;2.08;;
67164;SDS011;54093;50.014;19.984;2023-05-07T13:55:56;2.35;;;2.08;;
67164;SDS011;54093;50.014;19.984;2023-05-07T14:05:17;2.78;;;2.63;;
67164;SDS011;54093;50.014;19.984;2023-05-07T14:14:38;2.22;;;1.92;;
67164;SDS011;54093;50.014;19.984;2023-05-07T14:23:59;2.67;;;2.47;;
67164;SDS011;54093;50.014;19.984;2023-05-07T14:33:20;2.50;;;2.40;;
67164;SDS011;54093;50.014;19.984;2023-05-07T14:42:41;2.70;;;2.60;;
67164;SDS011;54093;50.014;19.984;2023-05-07T14:52:02;3.92;;;2.63;;
67164;SDS011;54093;50.014;19.984;2023-05-07T15:01:25;3.03;;;2.83;;
67164;SDS011;54093;50.014;19.984;2023-05-07T15:10:47;2.50;;;2.40;;
67164;SDS011;54093;50.014;19.984;2023-05-07T15:20:08;3.15;;;2.70;;
67164;SDS011;54093;50.014;19.984;2023-05-07T15:29:29;2.67;;;2.58;;
67164;SDS011;54093;50.014;19.984;2023-05-07T15:38:50;2.50;;;2.40;;
67164;SDS011;54093;50.014;19.984;2023-05-07T15:48:11;2.75;;;2.55;;
67164;SDS011;54093;50.014;19.984;2023-05-07T15:57:32;2.78;;;2.58;;
67164;SDS011;54093;50.014;19.984;2023-05-07T16:06:53;2.55;;;2.45;;
67164;SDS011;54093;50.014;19.984;2023-05-07T16:16:14;2.75;;;2.40;;
67164;SDS011;54093;50.014;19.984;2023-05-07T16:25:35;3.55;;;2.92;;
67164;SDS011;54093;50.014;19.984;2023-05-07T16:34:56;3.97;;;3.67;;
67164;SDS011;54093;50.014;19.984;2023-05-07T16:44:16;2.72;;;2.63;;
67164;SDS011;54093;50.014;19.984;2023-05-07T16:53:37;7.07;;;3.47;;
67164;SDS011;54093;50.014;19.984;2023-05-07T17:02:58;3.90;;;3.60;;
67164;SDS011;54093;50.014;19.984;2023-05-07T17:12:20;6.68;;;3.78;;
67164;SDS011;54093;50.014;19.984;2023-05-07T17:21:42;4.65;;;3.75;;
67164;SDS011;54093;50.014;19.984;2023-05-07T17:31:02;6.63;;;3.40;;
67164;SDS011;54093;50.014;19.984;2023-05-07T17:40:23;4.05;;;3.85;;
67164;SDS011;54093;50.014;19.984;2023-05-07T17:49:48;4.85;;;4.45;;
67164;SDS011;54093;50.014;19.984;2023-05-07T17:59:09;4.43;;;4.13;;
67164;SDS011;54093;50.014;19.984;2023-05-07T18:08:30;4.03;;;3.72;;
67164;SDS011;54093;50.014;19.984;2023-05-07T18:17:54;4.30;;;4.00;;
67164;SDS011;54093;50.014;19.984;2023-05-07T18:27:15;4.07;;;3.78;;
67164;SDS011;54093;50.014;19.984;2023-05-07T18:36:36;4.40;;;4.10;;
67164;SDS011;54093;50.014;19.984;2023-05-07T18:45:57;5.60;;;4.38;;
67164;SDS011;54093;50.014;19.984;2023-05-07T18:55:18;4.93;;;4.63;;
67164;SDS011;54093;50.014;19.984;2023-05-07T19:04:41;3.25;;;3.05;;
67164;SDS011;54093;50.014;19.984;2023-05-07T19:14:02;3.05;;;2.85;;
67164;SDS011;54093;50.014;19.984;2023-05-07T19:23:23;2.95;;;2.75;;
67164;SDS011;54093;50.014;19.984;2023-05-07T19:32:44;2.72;;;2.60;;
67164;SDS011;54093;50.014;19.984;2023-05-07T19:42:05;3.60;;;3.30;;
67164;SDS011;54093;50.014;19.984;2023-05-07T19:51:26;3.03;;;2.90;;
67164;SDS011;54093;50.014;19.984;2023-05-07T20:00:51;3.90;;;2.80;;
67164;SDS011;54093;50.014;19.984;2023-05-07T20:10:12;3.50;;;3.30;;
67164;SDS011;54093;50.014;19.984;2023-05-07T20:19:33;2.63;;;2.42;;
67164;SDS011;54093;50.014;19.984;2023-05-07T20:28:54;2.55;;;2.38;;
67164;SDS011;54093;50.014;19.984;2023-05-07T20:38:15;2.67;;;2.50;;
67164;SDS011;54093;50.014;19.984;2023-05-07T20:47:36;3.60;;;3.40;;
67164;SDS011;54093;50.014;19.984;2023-05-07T20:56:57;4.88;;;4.47;;
67164;SDS011;54093;50.014;19.984;2023-05-07T21:06:19;3.97;;;3.67;;
67164;SDS011;54093;50.014;19.984;2023-05-07T21:15:40;6.10;;;3.42;;
67164;SDS011;54093;50.014;19.984;2023-05-07T21:25:02;3.42;;;3.22;;
67164;SDS011;54093;50.014;19.984;2023-05-07T21:34:23;2.40;;;2.30;;
67164;SDS011;54093;50.014;19.984;2023-05-07T21:43:44;3.88;;;2.90;;
67164;SDS011;54093;50.014;19.984;2023-05-07T21:53:05;5.18;;;3.40;;
67164;SDS011;54093;50.014;19.984;2023-05-07T22:02:26;3.08;;;2.92;;
67164;SDS011;54093;50.014;19.984;2023-05-07T22:11:47;3.50;;;2.67;;
67164;SDS011;54093;50.014;19.984;2023-05-07T22:21:08;2.72;;;2.53;;
67164;SDS011;54093;50.014;19.984;2023-05-07T22:30:29;2.33;;;2.22;;
67164;SDS011;54093;50.014;19.984;2023-05-07T22:39:50;2.25;;;2.15;;
67164;SDS011;54093;50.014;19.984;2023-05-07T22:49:11;2.53;;;2.33;;
67164;SDS011;54093;50.014;19.984;2023-05-07T22:58:32;2.50;;;2.33;;
67164;SDS011;54093;50.014;19.984;2023-05-07T23:07:53;2.33;;;2.22;;
67164;SDS011;54093;50.014;19.984;2023-05-07T23:17:14;4.65;;;2.47;;
67164;SDS011;54093;50.014;19.984;2023-05-07T23:26:35;2.15;;;2.05;;
67164;SDS011;54093;50.014;19.984;2023-05-07T23:35:59;3.50;;;2.88;;
67164;SDS011;54093;50.014;19.984;2023-05-07T23:45:21;2.60;;;2.50;;
67164;SDS011;54093;50.014;19.984;2023-05-07T23:54:42;2.92;;;2.58;;
